createdAt,value
2023-03-29T14:01:07.475Z,1204.4615
2023-03-29T14:02:08.663Z,1214.6154
2023-03-29T14:03:09.833Z,1227.3846
2023-03-29T14:04:11.093Z,1204.3846
2023-03-29T14:05:12.318Z,1208.0000
2023-03-29T14:06:13.546Z,1143.7693
2023-03-29T14:07:14.812Z,1120.3846
2023-03-29T14:08:19.401Z,1114.0769
2023-03-29T14:09:20.931Z,1104.1538
2023-03-29T14:10:22.423Z,1125.8462
2023-03-29T14:11:24.481Z,1139.9231
2023-03-29T14:12:25.653Z,1170.3077
2023-03-29T14:13:27.036Z,1212.4615
2023-03-29T14:14:28.553Z,1185.5385
2023-03-29T14:15:30.049Z,1132.3077
2023-03-29T14:16:31.815Z,1095.3077
2023-03-29T14:17:33.133Z,1109.6923
2023-03-29T14:18:34.802Z,1108.0000
2023-03-29T14:19:36.128Z,1119.4615
2023-03-29T14:21:58.808Z,1103.9231
2023-03-29T14:23:00.047Z,1092.1538
2023-03-29T14:24:01.282Z,1075.0769
2023-03-29T14:25:02.477Z,1061.9231
2023-03-29T14:26:03.972Z,1075.0000
2023-03-29T14:27:04.989Z,1095.2307
2023-03-29T14:28:06.234Z,1089.8462
2023-03-29T14:29:07.445Z,1090.6923
2023-03-29T14:30:07.600Z,1092.8334
2023-03-29T14:32:04.573Z,1095.5385
2023-03-29T14:33:05.787Z,1075.9231
2023-03-29T14:34:06.958Z,1066.5385
2023-03-29T14:35:10.401Z,1045.3846
2023-03-29T14:36:12.064Z,1045.6923
2023-03-29T14:37:13.475Z,1054.4615
2023-03-29T14:38:14.927Z,1055.0769
2023-03-29T14:39:17.847Z,1066.1538
2023-03-29T14:40:19.120Z,1058.0000
2023-03-29T14:41:21.998Z,1053.9231
2023-03-29T14:42:21.575Z,1074.1538
2023-03-29T14:43:22.746Z,1083.4615
2023-03-29T14:44:24.076Z,1109.0000
2023-03-29T14:45:25.566Z,1137.3846
2023-03-29T14:46:27.197Z,1089.6154
2023-03-29T14:47:28.650Z,1061.6154
2023-03-29T14:48:30.137Z,1036.6923
2023-03-29T14:49:31.702Z,1033.8462
2023-03-29T14:50:33.196Z,1041.0769
2023-03-29T14:51:34.694Z,1034.0000
2023-03-29T14:52:36.239Z,968.7692
2023-03-29T14:53:37.762Z,939.4615
2023-03-29T14:54:39.242Z,914.1539
2023-03-29T14:55:40.799Z,902.4615
2023-03-29T14:56:42.308Z,889.3077
2023-03-29T14:57:43.852Z,864.2308
2023-03-29T14:58:45.316Z,846.5385
2023-03-29T14:59:46.854Z,844.0000
2023-03-29T15:00:48.399Z,926.5385
2023-03-29T15:01:50.010Z,932.6154
2023-03-29T15:02:51.536Z,943.6923
2023-03-29T15:03:54.712Z,913.4615
2023-03-29T15:04:54.461Z,877.6923
2023-03-29T15:05:56.003Z,859.0000
2023-03-29T15:06:57.510Z,857.6923
2023-03-29T15:07:59.025Z,852.3077
2023-03-29T15:09:06.161Z,844.8461
2023-03-29T15:10:04.418Z,836.0000
2023-03-29T15:11:05.694Z,839.1539
2023-03-29T15:12:06.925Z,849.9231
2023-03-29T15:13:08.181Z,851.2308
2023-03-29T15:14:09.433Z,846.7692
2023-03-29T15:15:10.629Z,840.5385
2023-03-29T15:16:12.075Z,850.0000
2023-03-29T15:17:13.122Z,867.3077
2023-03-29T15:18:14.441Z,955.1539
2023-03-29T15:19:15.725Z,920.0769
2023-03-29T15:20:17.260Z,889.7692
2023-03-29T15:21:18.794Z,872.3846
2023-03-29T15:22:20.275Z,843.6923
2023-03-29T15:23:21.854Z,853.4615
2023-03-29T15:24:23.368Z,847.7692
2023-03-29T15:25:24.877Z,840.6923
2023-03-29T15:26:26.394Z,840.3077
2023-03-29T15:27:27.928Z,837.0769
2023-03-29T15:28:29.487Z,834.2308
2023-03-29T15:29:30.936Z,834.6923
2023-03-29T15:30:33.982Z,835.0000
2023-03-29T15:31:35.245Z,830.5385
2023-03-29T15:32:36.465Z,835.6154
2023-03-29T15:33:37.922Z,847.6154
2023-03-29T15:34:38.930Z,848.1539
2023-03-29T15:35:40.160Z,887.5385
2023-03-29T15:36:41.703Z,930.2308
2023-03-29T15:37:43.136Z,892.6154
2023-03-29T15:38:45.508Z,851.6923
2023-03-29T15:39:46.180Z,828.7692
2023-03-29T15:40:47.763Z,816.0769
2023-03-29T15:41:49.287Z,818.8461
2023-03-29T15:42:50.760Z,817.2308
2023-03-29T15:43:52.268Z,820.4615
2023-03-29T15:44:53.809Z,819.3077
2023-03-29T15:45:55.330Z,810.6154
2023-03-29T15:46:56.875Z,804.9231
2023-03-29T15:47:59.735Z,809.0769
2023-03-29T15:49:01.015Z,813.9231
2023-03-29T15:50:02.198Z,820.9231
2023-03-29T15:51:06.534Z,855.7692
2023-03-29T15:52:04.677Z,852.9231
2023-03-29T15:53:15.149Z,848.7692
2023-03-29T15:54:07.584Z,881.9231
2023-03-29T15:55:08.998Z,837.2308
2023-03-29T15:56:10.562Z,814.5385
2023-03-29T15:57:12.482Z,806.8461
2023-03-29T15:58:13.665Z,800.7692
2023-03-29T15:59:18.129Z,793.0769
2023-03-29T16:00:19.350Z,800.0000
2023-03-29T16:01:20.574Z,799.7692
2023-03-29T16:02:21.854Z,801.1539
2023-03-29T16:03:23.089Z,800.3077
2023-03-29T16:04:24.291Z,801.9231
2023-03-29T16:05:25.546Z,802.5385
2023-03-29T16:06:26.786Z,800.0000
2023-03-29T16:07:27.980Z,814.6154
2023-03-29T16:08:29.232Z,835.0769
2023-03-29T16:09:30.554Z,814.2308
2023-03-29T16:10:31.798Z,906.9231
2023-03-29T16:11:33.332Z,854.9231
2023-03-29T16:12:34.830Z,815.3077
2023-03-29T16:13:36.509Z,824.0769
2023-03-29T16:14:37.928Z,799.7692
2023-03-29T16:15:39.421Z,788.4615
2023-03-29T16:16:40.969Z,781.0000
2023-03-29T16:17:42.511Z,783.3846
2023-03-29T16:18:43.943Z,786.0769
2023-03-29T16:19:45.542Z,787.0000
2023-03-29T16:20:46.991Z,787.3077
2023-03-29T16:21:48.558Z,783.3846
2023-03-29T16:22:50.031Z,781.9231
2023-03-29T16:23:51.580Z,778.3077
2023-03-29T16:24:53.141Z,796.8461
2023-03-29T16:25:54.633Z,835.1539
2023-03-29T16:26:56.486Z,903.4615
2023-03-29T16:27:57.671Z,925.9231
2023-03-29T16:28:59.165Z,873.0769
2023-03-29T16:30:00.736Z,823.0769
2023-03-29T16:31:02.212Z,811.8461
2023-03-29T16:32:06.265Z,802.9231
2023-03-29T17:45:53.497Z,2358.5386
2023-03-29T17:46:54.801Z,2366.9231
2023-03-29T17:47:56.045Z,2251.0769
2023-03-29T17:48:57.204Z,2190.6924
2023-03-29T17:52:32.756Z,2190.8462
2023-03-29T17:53:34.018Z,2196.3845
2023-03-29T17:54:35.231Z,2181.6924
2023-03-29T17:55:36.481Z,2170.1538
2023-03-29T17:56:37.710Z,2171.8462
2023-03-29T17:57:39.424Z,2174.7693
2023-03-29T17:58:40.168Z,2167.6155
2023-03-29T17:59:41.473Z,2132.6924
2023-03-29T18:00:46.195Z,2131.6155
2023-03-29T18:01:48.646Z,2138.4614
2023-03-29T18:02:44.656Z,2100.5833
2023-03-29T18:03:46.132Z,2064.8462
2023-03-29T18:04:47.612Z,2124.6924
2023-03-29T18:05:49.126Z,2124.8462
2023-03-29T18:06:50.654Z,2075.4614
2023-03-29T18:07:52.199Z,2052.0000
2023-03-29T18:08:53.714Z,2018.0000
2023-03-29T18:09:55.236Z,2003.2307
2023-03-29T18:10:56.752Z,1997.5385
2023-03-29T18:11:58.283Z,1984.2307
2023-03-29T18:12:59.953Z,1987.5385
2023-03-29T18:14:01.327Z,2041.3846
2023-03-29T18:15:02.858Z,2080.7693
2023-03-29T18:16:04.560Z,2108.0000
2023-03-29T18:17:05.900Z,2113.6155
2023-03-29T18:18:08.740Z,2510.9231
2023-03-29T18:19:08.917Z,3740.6155
2023-03-29T18:20:10.453Z,2813.6155
2023-03-29T18:21:11.948Z,2437.6155
2023-03-29T18:22:13.463Z,2248.9231
2023-03-29T18:23:14.998Z,2211.0769
2023-03-29T18:24:16.518Z,2160.3845
2023-03-29T18:25:18.033Z,2131.2307
2023-03-29T18:26:19.562Z,2150.7693
2023-03-29T18:27:21.115Z,2127.8462
2023-03-29T18:28:22.653Z,2102.5386
2023-03-29T18:29:24.142Z,2087.2307
2023-03-29T18:30:25.647Z,2090.2307
2023-03-29T18:31:27.278Z,2096.0769
2023-03-29T18:32:28.716Z,2061.3076
2023-03-29T18:33:30.234Z,2012.7693
2023-03-29T18:34:31.733Z,1998.3077
2023-03-29T18:35:33.325Z,1998.9231
2023-03-29T18:36:34.780Z,2041.2307
2023-03-29T18:37:36.328Z,2106.4614
2023-03-29T18:38:41.443Z,2114.4614
2023-03-29T18:39:48.951Z,2096.0769
2023-03-29T18:40:44.203Z,2156.6667
2023-03-29T18:43:17.959Z,2055.0000
2023-03-29T18:44:18.607Z,2052.1538
2023-03-29T18:45:20.171Z,2030.0000
2023-03-29T18:46:22.603Z,2009.0000
2023-03-29T18:47:23.407Z,1991.5385
2023-03-29T18:48:24.686Z,1981.7693
2023-03-29T18:49:26.202Z,1994.3077
2023-03-29T18:50:29.449Z,1996.4615
2023-03-29T18:51:29.222Z,1960.8462
2023-03-29T18:52:32.364Z,1943.2307
2023-03-29T18:53:37.034Z,1960.0000
2023-03-29T18:54:38.549Z,1974.8462
2023-03-29T18:55:40.126Z,2042.6923
2023-03-29T18:56:42.028Z,1962.7693
2023-03-29T18:57:43.099Z,2012.3846
2023-03-29T18:58:44.628Z,1955.8462
2023-03-29T18:59:46.134Z,1966.0769
2023-03-29T19:00:47.632Z,1957.5385
2023-03-29T19:01:53.266Z,1951.8462
2023-03-29T19:02:53.867Z,1920.0000
2023-03-29T19:03:55.774Z,1901.1538
2023-03-29T19:04:56.281Z,1900.1538
2023-03-29T19:05:57.503Z,1946.1538
2023-03-29T19:06:58.741Z,2043.0000
2023-03-29T19:07:59.988Z,2064.4614
2023-03-29T19:09:01.242Z,2038.6923
2023-03-29T19:10:02.486Z,2003.9231
2023-03-29T19:11:03.756Z,2007.1538
2023-03-29T19:12:04.969Z,2049.3845
2023-03-29T19:13:06.241Z,2075.4614
2023-03-29T19:14:07.515Z,2010.6154
2023-03-29T19:15:08.940Z,2058.2307
2023-03-29T19:16:10.536Z,1929.3077
2023-03-29T19:17:11.984Z,1973.5385
2023-03-29T19:18:13.630Z,1945.5385
2023-03-29T19:19:14.999Z,1950.8462
2023-03-29T19:20:16.555Z,1956.4615
2023-03-29T19:21:18.045Z,1958.7693
2023-03-29T19:22:19.590Z,1948.9231
2023-03-29T19:23:21.092Z,1936.6923
2023-03-29T19:24:22.642Z,1903.5385
2023-03-29T19:25:24.130Z,1878.6923
2023-03-29T19:26:25.653Z,1868.4615
2023-03-29T19:27:27.196Z,1866.5385
2023-03-29T19:28:28.716Z,1876.6923
2023-03-29T19:29:30.271Z,1944.2307
2023-03-29T19:30:31.735Z,1958.9231
2023-03-29T19:31:33.324Z,2042.6923
2023-03-29T19:32:34.803Z,2028.7693
2023-03-29T19:33:36.318Z,1953.0769
2023-03-29T19:34:37.828Z,1959.5385
2023-03-29T19:35:39.349Z,1924.3846
2023-03-29T19:36:40.858Z,1909.0769
2023-03-29T19:37:42.376Z,1900.2307
2023-03-29T19:38:44.010Z,1892.8462
2023-03-29T19:39:45.448Z,1897.3077
2023-03-29T19:40:46.958Z,1904.2307
2023-03-29T19:41:48.454Z,1910.7693
2023-03-29T19:42:50.036Z,1905.9231
2023-03-29T19:43:51.563Z,1902.0769
2023-03-29T19:44:53.062Z,1880.7693
2023-03-29T19:45:54.748Z,1860.0000
2023-03-29T19:46:56.150Z,1890.5385
2023-03-29T19:47:57.648Z,1889.1538
2023-03-29T19:48:59.127Z,1881.6923
2023-03-29T19:50:00.664Z,1883.4615
2023-03-29T19:51:02.177Z,1935.6923
2023-03-29T19:52:03.729Z,1903.6923
2023-03-29T19:53:05.218Z,1846.4615
2023-03-29T19:54:06.795Z,1856.7693
2023-03-29T19:55:08.318Z,1870.3077
2023-03-29T19:56:09.809Z,1896.3846
2023-03-29T19:57:11.326Z,1895.7693
2023-03-29T19:58:12.906Z,1891.6154
2023-03-29T19:59:14.360Z,1903.2307
2023-03-29T20:00:15.907Z,1915.3846
2023-03-29T20:01:17.406Z,1910.0769
2023-03-29T20:02:18.937Z,1905.8462
2023-03-29T20:03:20.471Z,1916.4615
2023-03-29T20:04:22.033Z,1924.4615
2023-03-29T20:05:23.509Z,1935.8462
2023-03-29T20:06:25.039Z,1966.2307
2023-03-29T20:07:26.545Z,1861.0769
2023-03-29T20:08:28.075Z,1862.0000
2023-03-29T20:09:29.632Z,1868.8462
2023-03-29T20:10:31.136Z,1865.5385
2023-03-29T20:11:32.637Z,1830.6923
2023-03-29T20:12:34.191Z,1820.0769
2023-03-29T20:13:38.718Z,1814.0000
2023-03-29T20:14:37.217Z,1825.4615
2023-03-29T20:15:38.736Z,1825.8462
2023-03-29T20:16:40.316Z,1817.3077
2023-03-29T20:17:41.801Z,1822.3846
2023-03-29T20:18:43.303Z,1851.7693
2023-03-29T20:19:44.860Z,1874.9231
2023-03-29T20:20:46.362Z,1867.2307
2023-03-29T20:21:47.970Z,1876.5385
2023-03-29T20:22:53.696Z,1881.6154
2023-03-29T20:23:51.104Z,1980.6923
2023-03-29T20:24:52.456Z,1939.8462
2023-03-29T20:25:54.012Z,1887.7693
2023-03-29T20:26:55.495Z,1869.8462
2023-03-29T20:27:57.007Z,1866.8462
2023-03-29T20:28:58.529Z,1860.6154
2023-03-29T20:30:00.061Z,1834.3077
2023-03-29T20:31:01.936Z,1809.1538
2023-03-29T20:32:03.151Z,1795.5385
2023-03-29T20:33:04.712Z,1795.3077
2023-03-29T20:34:06.154Z,1798.6923
2023-03-29T20:35:07.691Z,1783.9231
2023-03-29T20:36:09.349Z,1790.0769
2023-03-29T20:37:10.898Z,1785.8462
2023-03-29T20:38:12.269Z,1824.0000
2023-03-29T20:39:13.908Z,1847.7693
2023-03-29T20:40:15.304Z,1858.9231
2023-03-29T20:41:16.822Z,1937.4615
2023-03-29T20:42:18.804Z,1888.4615
2023-03-29T20:43:19.905Z,1823.6154
2023-03-29T20:44:21.859Z,1830.6154
2023-03-29T20:45:22.917Z,1826.1538
2023-03-29T20:46:24.552Z,1797.1538
2023-03-29T20:47:25.973Z,1818.7693
2023-03-29T20:48:27.491Z,1837.0000
2023-03-29T20:49:29.164Z,1848.3846
2023-03-29T20:50:30.588Z,1862.4615
2023-03-29T20:51:32.185Z,1873.0769
2023-03-29T20:52:33.597Z,1883.7693
2023-03-29T20:53:35.121Z,1886.5385
2023-03-29T20:54:36.715Z,1885.4615
2023-03-29T20:55:38.171Z,1918.6154
2023-03-29T20:56:40.715Z,1963.7693
2023-03-29T20:57:41.203Z,1999.9231
2023-03-29T20:58:42.694Z,2013.1538
2023-03-29T20:59:44.253Z,1984.7693
2023-03-29T21:00:45.761Z,1982.0000
2023-03-29T21:01:47.306Z,1981.3846
2023-03-29T21:02:48.867Z,1952.0769
2023-03-29T21:03:50.387Z,1911.8462
2023-03-29T21:04:51.963Z,1902.4615
2023-03-29T21:05:53.449Z,1914.4615
2023-03-29T21:06:54.914Z,1927.7693
2023-03-29T21:07:56.425Z,1920.7693
2023-03-29T21:08:57.942Z,1914.0000
2023-03-29T21:09:59.465Z,1930.4615
2023-03-29T21:11:01.140Z,1945.8462
2023-03-29T21:12:02.599Z,1957.8462
2023-03-29T21:13:04.041Z,2005.4615
2023-03-29T21:14:05.576Z,2069.6155
2023-03-29T21:15:07.084Z,2034.7693
2023-03-29T21:16:08.662Z,2023.0000
2023-03-29T21:17:10.186Z,1937.7693
2023-03-29T21:18:11.726Z,1932.4615
2023-03-29T21:19:13.169Z,1905.1538
2023-03-29T21:20:14.721Z,1910.1538
2023-03-29T21:21:16.252Z,1906.6923
2023-03-29T21:22:22.608Z,1897.6923
2023-03-29T21:23:26.055Z,1889.0000
2023-03-29T21:24:29.520Z,1873.0000
2023-03-29T21:25:29.615Z,1859.6923
2023-03-29T21:26:30.525Z,1873.5385
2023-03-29T21:27:31.555Z,1892.3846
2023-03-29T21:28:33.153Z,1887.7693
2023-03-29T21:29:35.434Z,1934.7693
2023-03-29T21:30:36.752Z,2040.4615
2023-03-29T21:31:37.276Z,2050.3845
2023-03-29T21:32:37.783Z,2053.3845
2023-03-29T21:33:40.801Z,1985.7693
2023-03-29T21:34:41.452Z,1953.7693
2023-03-29T21:35:42.447Z,1964.6923
2023-03-29T21:36:43.835Z,1932.3846
2023-03-29T21:37:45.334Z,1918.3846
2023-03-29T21:38:46.943Z,1905.0000
2023-03-29T21:39:49.518Z,1919.8462
2023-03-29T21:40:50.022Z,1989.8462
2023-03-29T21:41:51.422Z,2049.8462
2023-03-29T21:42:52.945Z,2075.8462
2023-03-29T21:43:54.475Z,2055.6155
2023-03-29T21:44:56.012Z,2043.0000
2023-03-29T21:45:57.613Z,2004.2307
2023-03-29T21:46:59.133Z,1986.8462
2023-03-29T21:48:00.647Z,2015.9231
2023-03-29T21:49:02.162Z,2087.2307
2023-03-29T21:50:03.652Z,2142.6155
2023-03-29T21:51:05.446Z,2027.5385
2023-03-29T21:52:06.683Z,1985.6923
2023-03-29T21:53:08.693Z,2015.5385
2023-03-29T21:54:10.267Z,2019.4000
2023-03-29T22:06:32.735Z,2012.5454
2023-03-29T22:07:24.827Z,1843.9166
2023-03-29T22:08:26.439Z,1832.6154
2023-03-29T22:09:27.887Z,1847.9231
2023-03-29T22:10:29.432Z,1861.9231
2023-03-29T22:11:31.866Z,1886.1538
2023-03-29T22:12:32.473Z,1894.6154
2023-03-29T22:13:33.981Z,1882.9231
2023-03-29T22:14:36.243Z,1888.2307
2023-03-29T22:15:37.009Z,1896.8462
2023-03-29T22:16:40.956Z,1901.6923
2023-03-29T22:17:41.513Z,1898.7693
2023-03-29T22:18:42.765Z,1901.0769
2023-03-29T22:19:43.946Z,1894.5385
2023-03-29T22:20:45.197Z,1916.7693
2023-03-29T22:21:46.423Z,1938.3077
2023-03-29T22:22:47.808Z,1975.0000
2023-03-29T22:23:49.187Z,1997.0769
2023-03-29T22:24:51.888Z,1986.3846
2023-03-29T22:25:52.237Z,1972.9231
2023-03-29T22:26:53.742Z,1942.6923
2023-03-29T22:27:55.312Z,1933.0000
2023-03-29T22:28:57.378Z,1922.7693
2023-03-29T22:29:58.348Z,1923.9231
2023-03-29T22:31:00.288Z,1921.0000
2023-03-29T22:32:01.474Z,1911.9231
2023-03-29T22:33:02.984Z,1912.5385
2023-03-29T22:34:04.503Z,1919.3846
2023-03-29T22:35:05.942Z,1914.9231
2023-03-29T22:36:07.457Z,1917.7693
2023-03-29T22:37:08.978Z,1934.8462
2023-03-29T22:38:10.503Z,1955.5385
2023-03-29T22:39:12.038Z,1987.7693
2023-03-29T22:40:13.558Z,1967.6923
2023-03-29T22:41:15.071Z,1963.0769
2023-03-29T22:42:16.609Z,1914.3846
2023-03-29T22:43:18.140Z,1926.8462
2023-03-29T22:44:19.640Z,1925.4615
2023-03-29T22:45:21.206Z,1927.3846
2023-03-29T22:46:22.777Z,1921.2307
2023-03-29T22:47:24.240Z,1904.1538
2023-03-29T22:48:25.709Z,1903.1538
2023-03-29T22:49:27.257Z,1913.4615
2023-03-29T22:50:28.769Z,1921.5385
2023-03-29T22:51:30.301Z,1919.0000
2023-03-29T22:52:31.852Z,1911.6923
2023-03-29T22:53:33.376Z,1897.1538
2023-03-29T22:54:34.864Z,1913.0000
2023-03-29T22:55:36.375Z,1914.3846
2023-03-29T22:56:37.997Z,1980.8462
2023-03-29T22:57:39.472Z,2040.1538
2023-03-29T22:58:40.988Z,2012.4615
2023-03-29T22:59:42.493Z,1940.2307
2023-03-29T23:00:44.019Z,1896.6154
2023-03-29T23:01:45.514Z,1897.6154
2023-03-29T23:02:47.031Z,1902.2307
2023-03-29T23:03:48.595Z,1901.2307
2023-03-29T23:04:50.222Z,1897.7693
2023-03-29T23:05:51.587Z,1901.6923
2023-03-29T23:06:53.193Z,1892.6154
2023-03-29T23:07:54.624Z,1885.0769
2023-03-29T23:08:56.170Z,1873.4615
2023-03-29T23:09:57.723Z,1865.0000
2023-03-29T23:10:59.188Z,1877.6154
2023-03-29T23:12:00.854Z,1862.2307
2023-03-29T23:13:02.224Z,1920.0769
2023-03-29T23:14:03.744Z,1978.2307
2023-03-29T23:15:05.304Z,1922.3846
2023-03-29T23:16:06.889Z,1894.0000
2023-03-29T23:17:08.307Z,1860.4615
2023-03-29T23:18:09.852Z,1835.9231
2023-03-29T23:19:11.347Z,1828.7693
2023-03-29T23:20:12.938Z,1818.0000
2023-03-29T23:21:14.397Z,1819.7693
2023-03-29T23:22:15.951Z,1818.0000
2023-03-29T23:23:17.438Z,1808.8462
2023-03-29T23:24:19.323Z,1795.6154
2023-03-29T23:25:20.490Z,1793.2307
2023-03-29T23:26:22.003Z,1786.3077
2023-03-29T23:27:23.576Z,1780.6154
2023-03-29T23:28:25.069Z,1796.4615
2023-03-29T23:29:26.567Z,1785.4615
2023-03-29T23:30:28.108Z,1851.4615
2023-03-29T23:31:29.657Z,1882.0769
2023-03-29T23:32:31.165Z,1833.1538
2023-03-29T23:33:32.689Z,1773.5385
2023-03-29T23:34:34.185Z,1782.2307
2023-03-29T23:35:35.773Z,1774.2307
2023-03-29T23:36:37.233Z,1757.7693
2023-03-29T23:37:38.799Z,1753.3077
2023-03-29T23:38:40.262Z,1745.8462
2023-03-29T23:39:41.826Z,1731.2307
2023-03-29T23:40:43.316Z,1732.5385
2023-03-29T23:41:44.915Z,1734.6923
2023-03-29T23:42:46.384Z,1728.3846
2023-03-29T23:43:47.913Z,1728.6154
2023-03-29T23:44:49.402Z,1723.6923
2023-03-29T23:45:51.083Z,1724.1538
2023-03-29T23:46:52.541Z,1783.0769
2023-03-29T23:47:54.025Z,1767.3077
2023-03-29T23:48:55.554Z,1750.6923
2023-03-29T23:49:57.016Z,1808.6923
2023-03-29T23:50:59.616Z,1738.0000
2023-03-29T23:52:00.077Z,1727.8462
2023-03-29T23:53:01.560Z,1723.5385
2023-03-29T23:54:03.120Z,1704.6154
2023-03-29T23:55:04.595Z,1700.3077
2023-03-29T23:56:06.139Z,1694.5385
2023-03-29T23:57:07.757Z,1685.6923
2023-03-29T23:58:09.156Z,1684.7693
2023-03-29T23:59:10.741Z,1685.2307
